Terminal Aerodrome Forecast
Issued by NWS

Home | Current Version | Previous Version | Text Only | Print | Product List | Glossary On
Versions: 1 2 3 4 5 6 7 8 9 10 11 12 13 14 15 16
000
FTUS43 KMQT 192337
TAFIWD
TAF
KIWD 192337Z 2000/2024 05009KT 1 1/2SM -SN OVC012
     FM200500 06010KT 3SM -SN OVC015
     FM201200 06006KT 1 1/2SM -SN OVC015
     FM201600 03004KT 3SM -SN OVC010
     FM201800 36003KT P6SM OVC008
     FM202100 32006KT P6SM OVC010=

USA.gov is the U.S. government's official web portal to all federal, state and local government web resources and services.